This is the latest recevied weather packets stored in our database for station/object EA5LU-10. If no packets are shown the sender has not sent any weather packets the latest 10 day(s).
| Time | Temp. | Humidity | Pressure | Rain* | Wind** | Luminosity | Snow |
|---|---|---|---|---|---|---|---|
| 1777477656 | 25.56° C | 53% | 1001.9 hPa | - | - | - | - |
| 1777476755 | 28.33° C | 46% | 1002 hPa | - | - | - | - |
| 1777475855 | 28.33° C | 48% | 1001.9 hPa | - | - | - | - |
| 1777474954 | 27.78° C | 49% | 1002 hPa | - | - | - | - |
| 1777474053 | 29.44° C | 46% | 1001.8 hPa | - | - | - | - |
| 1777473152 | 28.33° C | 47% | 1001.9 hPa | - | - | - | - |
| 1777472251 | 28.89° C | 47% | 1002 hPa | - | - | - | - |
| 1777471350 | 28.33° C | 48% | 1002 hPa | - | - | - | - |
| 1777470449 | 28.33° C | 48% | 1002.2 hPa | - | - | - | - |
| 1777469548 | 28.33° C | 48% | 1002.4 hPa | - | - | - | - |
| 1777468648 | 28.33° C | 48% | 1002.4 hPa | - | - | - | - |
| 1777467747 | 27.22° C | 49% | 1002.3 hPa | - | - | - | - |
| 1777466846 | 26.67° C | 51% | 1002.2 hPa | - | - | - | - |
| 1777465945 | 26.11° C | 52% | 1002.3 hPa | - | - | - | - |
| 1777465044 | 26.67° C | 51% | 1002.2 hPa | - | - | - | - |
| 1777464143 | 26.11° C | 51% | 1002.4 hPa | - | - | - | - |
| 1777463243 | 25° C | 54% | 1002.5 hPa | - | - | - | - |
| 1777462342 | 25° C | 53% | 1002.7 hPa | - | - | - | - |
| 1777461441 | 25° C | 54% | 1002.6 hPa | - | - | - | - |
| 1777460540 | 24.44° C | 55% | 1002.7 hPa | - | - | - | - |
| 1777459639 | 23.89° C | 57% | 1002.8 hPa | - | - | - | - |
| 1777458738 | 24.44° C | 56% | 1002.7 hPa | - | - | - | - |
| 1777457838 | 24.44° C | 56% | 1002.7 hPa | - | - | - | - |
| 1777456937 | 23.33° C | 58% | 1002.7 hPa | - | - | - | - |
| 1777456036 | 22.78° C | 59% | 1002.7 hPa | - | - | - | - |
* Rain since midnight (hover to see other rain measurements)
** Current wind speed in m/s (hover to see current wind gust speed)